New Milford, CT (06776)

7:42 AM EST on January 31, 2015 (GMT -0500)
Parkwood | Change Station
CLOSE
Current Station
Personal Weather Station
Location: New Milford, CT
Elevation: 856 ft
Nearby Weather Stations

Elev 856 ft 41.60 °N, 73.39 °W | Updated 22 seconds ago

Clear
Clear
2.8 °F
Feels Like -10 °F
N
7.2
Wind Variable Wind from NNW
Gusts 8.1 mph

Today
High -- | Low -- °F
--% Chance of Precip.
Yesterday
High -- | Low -- °F
Precip. -- in
7:06 AM 5:07 PM
Waxing Gibbous, 89% visible
Pressure 30.06 in
Visibility 10.0 miles
Clouds Clear
Windchill -10 °F
Dew Point -9 °F
Humidity 57%
Rainfall 0.00 in
Snow Depth Not available.
UV 0 out of 12
Pollen .10 out of 12
Air Quality Not available.
Flu Activity Not available.
METAR KDXR 311153Z 33014G21KT 10SM CLR M14/M25 A3003 RMK AO2 PK WND 32027/1129 SLP177 70002 T11391250 11106 21139 53009

More Conditions Fewer Conditions

Pressure 30.06 in
Visibility 10.0 miles
Clouds Clear
Windchill -10 °F
Dew Point -9 °F
Humidity 57%
Rainfall 0.00 in
Snow Depth Not available.
UV 0 out of 12
Pollen .10 out of 12
Air Quality Not available.
Flu Activity Not available.
METAR KDXR 311153Z 33014G21KT 10SM CLR M14/M25 A3003 RMK AO2 PK WND 32027/1129 SLP177 70002 T11391250 11106 21139 53009

More Conditions Fewer Conditions

10-Day Weather Forecast

Almanac

Astronomy

Jan. 31, 2015 Rise Set
Actual Time
Civil Twilight
Nautical Twilight
Astronomical Twilight
Moon
Length of Visible Light
Length of Day
Tomorrow will be .
, % of the Moon is Illuminated

Today's Extremes

State Highs State Lows

Community

WunderPhotos

Upload Photos

1,792,041 photos uploaded!

WunderBlogs® & News

Nearby

Air Quality

  Air Quality AQ Index Pollutant
Not available.

Snow Depth

Station Depth Elevation

Earthquake Activity

City Distance Mag. Time & Date
Minimum magnitude displayed is 2.5.

Coastal Water Temperatures

Place Temperature

Nearby Weather Stations